createdAt,value
2023-04-29T00:01:03.552Z,8.32
2023-04-29T00:03:32.519Z,7.63
2023-04-29T00:05:59.848Z,10.77
2023-04-29T00:08:26.610Z,14.48
2023-04-29T00:10:53.177Z,10.07
2023-04-29T00:13:19.735Z,11.32
2023-04-29T00:15:46.222Z,6.85
2023-04-29T00:18:14.205Z,11.45
2023-04-29T00:20:40.655Z,12.43
2023-04-29T00:23:07.794Z,15.95
2023-04-29T00:25:35.227Z,13.75
2023-04-29T00:28:02.302Z,14.75
2023-04-29T00:30:28.962Z,25.15
2023-04-29T00:32:55.630Z,18.90
2023-04-29T00:35:22.343Z,24.48
2023-04-29T00:37:49.421Z,26.98
2023-04-29T00:40:17.535Z,26.77
2023-04-29T00:42:44.090Z,30.02
2023-04-29T00:45:11.494Z,23.67
2023-04-29T00:47:38.630Z,19.23
2023-04-29T00:50:06.810Z,21.27
2023-04-29T00:52:34.769Z,23.30
2023-04-29T00:55:02.696Z,37.42
2023-04-29T00:57:30.143Z,33.30
2023-04-29T01:00:00.230Z,41.05
2023-04-29T01:02:28.155Z,29.13
2023-04-29T01:04:55.025Z,21.15
2023-04-29T01:07:26.266Z,27.73
2023-04-29T01:10:08.389Z,23.17
2023-04-29T01:13:00.568Z,24.20
2023-04-29T01:15:58.951Z,27.02
2023-04-29T01:18:41.386Z,28.42
2023-04-29T01:21:07.975Z,25.70
2023-04-29T01:23:34.420Z,39.38
2023-04-29T01:26:00.957Z,23.95
2023-04-29T01:29:00.001Z,26.73
2023-04-29T01:31:32.529Z,31.10
2023-04-29T01:34:17.374Z,34.67
2023-04-29T01:36:46.960Z,24.60
2023-04-29T01:39:36.149Z,35.80
2023-04-29T01:42:51.560Z,23.17
2023-04-29T01:45:42.333Z,26.05
2023-04-29T01:48:29.332Z,26.08
2023-04-29T01:51:15.905Z,21.90
2023-04-29T01:54:03.050Z,21.92
2023-04-29T01:56:29.623Z,21.38
2023-04-29T01:59:14.470Z,53.75
2023-04-29T02:01:59.650Z,26.95
2023-04-29T02:04:27.646Z,23.08
2023-04-29T02:06:54.487Z,20.35
2023-04-29T02:09:21.044Z,22.77
2023-04-29T02:11:53.026Z,25.38
2023-04-29T02:14:19.533Z,21.08
2023-04-29T02:16:46.148Z,23.65
2023-04-29T02:19:13.831Z,19.70
2023-04-29T02:21:40.439Z,20.67
2023-04-29T02:24:07.103Z,18.15
2023-04-29T02:26:34.372Z,17.65
2023-04-29T02:29:01.055Z,19.60
2023-04-29T02:31:29.274Z,17.30
2023-04-29T02:33:56.053Z,19.00
2023-04-29T02:36:22.830Z,17.90
2023-04-29T02:38:54.106Z,15.90
2023-04-29T02:41:21.221Z,17.48
2023-04-29T02:43:49.247Z,14.63
2023-04-29T02:46:16.820Z,15.68
2023-04-29T02:48:43.414Z,13.65
2023-04-29T02:51:10.651Z,12.07
2023-04-29T02:53:37.294Z,12.00
2023-04-29T02:56:04.719Z,9.65
2023-04-29T02:58:31.488Z,9.50
2023-04-29T03:00:58.080Z,10.50
2023-04-29T03:03:24.959Z,8.68
2023-04-29T03:05:52.133Z,7.28
2023-04-29T03:08:18.943Z,8.77
2023-04-29T03:10:46.598Z,7.80
2023-04-29T03:13:14.095Z,7.22
2023-04-29T03:15:40.945Z,9.82
2023-04-29T03:18:07.805Z,10.57
2023-04-29T03:20:34.489Z,5.93
2023-04-29T03:23:03.662Z,5.68
2023-04-29T03:25:31.387Z,6.25
2023-04-29T03:27:57.977Z,5.43
2023-04-29T03:30:24.732Z,8.73
2023-04-29T03:32:54.996Z,5.78
2023-04-29T03:35:21.886Z,3.70
2023-04-29T03:38:08.776Z,6.85
2023-04-29T03:40:37.159Z,3.80
2023-04-29T03:43:03.859Z,8.20
2023-04-29T03:45:31.000Z,5.97
2023-04-29T03:47:57.979Z,4.65
2023-04-29T03:50:26.139Z,5.88
2023-04-29T03:52:53.216Z,6.22
2023-04-29T03:55:19.942Z,4.43
2023-04-29T03:57:47.334Z,3.50
2023-04-29T04:00:16.226Z,3.65
2023-04-29T04:02:51.043Z,3.45
2023-04-29T04:05:20.805Z,3.53
2023-04-29T04:07:52.769Z,3.28
2023-04-29T04:10:34.189Z,2.75
2023-04-29T04:13:04.062Z,3.92
2023-04-29T04:15:31.402Z,3.85
2023-04-29T04:17:58.895Z,2.80
2023-04-29T04:20:25.560Z,4.38
2023-04-29T04:22:52.399Z,3.95
2023-04-29T04:25:23.797Z,2.67
2023-04-29T04:27:52.102Z,4.55
2023-04-29T04:30:38.758Z,3.25
2023-04-29T04:33:05.905Z,4.60
2023-04-29T04:35:33.172Z,3.55
2023-04-29T04:37:59.678Z,3.17
2023-04-29T04:40:26.361Z,2.95
2023-04-29T04:43:10.811Z,4.22
2023-04-29T04:45:40.899Z,4.50
2023-04-29T04:48:07.709Z,3.38
2023-04-29T04:50:36.891Z,4.65
2023-04-29T04:53:03.731Z,4.38
2023-04-29T04:55:42.789Z,2.50
2023-04-29T04:58:09.657Z,5.65
2023-04-29T05:00:36.900Z,5.18
2023-04-29T05:03:03.789Z,3.03
2023-04-29T05:05:30.365Z,7.43
2023-04-29T05:07:57.051Z,3.78
2023-04-29T05:10:30.977Z,4.00
2023-04-29T05:13:00.442Z,4.47
2023-04-29T05:15:27.519Z,5.45
2023-04-29T05:17:56.872Z,2.38
2023-04-29T05:20:24.946Z,5.05
2023-04-29T05:22:51.930Z,5.43
2023-04-29T05:25:19.112Z,3.40
2023-04-29T05:27:45.777Z,2.58
2023-04-29T05:30:16.229Z,5.45
2023-04-29T05:32:42.836Z,2.92
2023-04-29T05:35:13.324Z,3.38
2023-04-29T05:37:39.874Z,6.60
2023-04-29T05:40:27.183Z,2.05
2023-04-29T05:43:02.209Z,4.00
2023-04-29T05:45:29.080Z,3.95
2023-04-29T05:47:55.934Z,4.78
2023-04-29T05:50:22.526Z,4.05
2023-04-29T05:52:49.641Z,2.58
2023-04-29T05:55:16.294Z,3.13
2023-04-29T05:57:42.972Z,3.28
2023-04-29T06:00:10.108Z,3.08
2023-04-29T06:02:57.680Z,4.47
2023-04-29T06:05:27.528Z,4.55
2023-04-29T06:08:10.652Z,2.83
2023-04-29T06:10:52.259Z,5.00
2023-04-29T06:13:19.031Z,4.22
2023-04-29T06:15:45.824Z,6.05
2023-04-29T06:18:14.092Z,4.60
2023-04-29T06:20:40.671Z,7.40
2023-04-29T06:23:07.662Z,6.93
2023-04-29T06:25:34.290Z,8.45
2023-04-29T06:28:04.477Z,6.95
2023-04-29T06:30:31.689Z,7.25
2023-04-29T06:32:58.774Z,6.13
2023-04-29T06:35:25.728Z,6.57
2023-04-29T06:38:10.936Z,5.40
2023-04-29T06:40:57.754Z,7.15
2023-04-29T06:43:43.359Z,8.15
2023-04-29T06:46:34.593Z,9.45
2023-04-29T06:49:04.851Z,12.43
2023-04-29T06:51:32.321Z,9.90
2023-04-29T06:53:59.836Z,11.25
2023-04-29T06:56:26.388Z,12.55
2023-04-29T06:58:52.880Z,11.20
2023-04-29T07:01:19.650Z,12.68
2023-04-29T07:03:46.384Z,10.70
2023-04-29T07:06:13.200Z,10.23
2023-04-29T07:08:39.730Z,12.43
2023-04-29T07:11:06.222Z,13.52
2023-04-29T07:13:32.908Z,11.10
2023-04-29T07:15:59.356Z,14.15
2023-04-29T07:18:27.095Z,11.70
2023-04-29T07:20:55.662Z,14.43
2023-04-29T07:23:22.450Z,13.13
2023-04-29T07:25:49.032Z,13.02
2023-04-29T07:28:15.617Z,11.48
2023-04-29T07:30:42.132Z,13.90
2023-04-29T07:33:09.406Z,15.25
2023-04-29T07:35:36.036Z,14.20
2023-04-29T07:38:02.568Z,14.27
2023-04-29T07:40:30.735Z,17.65
2023-04-29T07:42:58.149Z,17.95
2023-04-29T07:45:24.737Z,18.35
2023-04-29T07:47:51.354Z,18.92
2023-04-29T07:50:18.204Z,18.42
2023-04-29T07:52:44.902Z,19.23
2023-04-29T07:55:11.429Z,15.98
2023-04-29T07:57:38.660Z,13.55
2023-04-29T08:00:06.407Z,17.05
2023-04-29T08:02:41.688Z,15.38
2023-04-29T08:05:09.896Z,13.85
2023-04-29T08:07:36.612Z,13.45
2023-04-29T08:10:03.194Z,15.75
2023-04-29T08:12:31.227Z,14.00
2023-04-29T08:14:57.713Z,14.73
2023-04-29T08:17:24.349Z,11.13
2023-04-29T08:19:50.992Z,13.20
2023-04-29T08:22:17.464Z,16.10
2023-04-29T08:24:45.244Z,18.85
2023-04-29T08:27:11.848Z,13.63
2023-04-29T08:29:39.072Z,14.23
2023-04-29T08:32:06.114Z,12.45
2023-04-29T08:34:33.747Z,11.80
2023-04-29T08:37:00.532Z,11.88
2023-04-29T08:39:28.888Z,12.30
2023-04-29T08:42:00.377Z,12.57
2023-04-29T08:44:27.539Z,13.40
2023-04-29T08:46:54.412Z,14.30
2023-04-29T08:49:21.000Z,12.50
2023-04-29T08:51:51.780Z,14.13
2023-04-29T08:54:18.515Z,11.65
2023-04-29T08:56:47.153Z,10.82
2023-04-29T08:59:17.651Z,10.82
2023-04-29T09:04:37.885Z,12.18
2023-04-29T09:07:06.704Z,11.00
2023-04-29T09:09:34.119Z,11.20
2023-04-29T09:12:00.818Z,12.13
2023-04-29T09:14:30.308Z,9.88
2023-04-29T09:16:56.803Z,11.00
2023-04-29T09:19:34.344Z,10.73
2023-04-29T09:22:07.084Z,9.60
2023-04-29T09:24:33.819Z,9.43
2023-04-29T09:27:01.541Z,9.70
2023-04-29T09:29:28.435Z,8.80
2023-04-29T09:31:55.973Z,8.40
2023-04-29T09:34:37.351Z,9.80
2023-04-29T09:37:03.841Z,7.43
2023-04-29T09:39:39.707Z,10.70
2023-04-29T09:42:06.416Z,7.90
2023-04-29T09:44:35.909Z,8.05
2023-04-29T09:47:07.606Z,4.97
2023-04-29T09:49:40.692Z,6.18
2023-04-29T09:52:11.028Z,5.47
2023-04-29T09:54:39.627Z,5.78
2023-04-29T09:57:07.467Z,6.45
2023-04-29T09:59:39.763Z,7.70
2023-04-29T10:02:20.790Z,6.15
2023-04-29T10:04:54.629Z,6.85
2023-04-29T10:07:22.353Z,6.45
2023-04-29T10:09:49.285Z,6.25
2023-04-29T10:12:20.623Z,7.25
2023-04-29T10:14:55.506Z,7.30
2023-04-29T10:17:36.966Z,8.35
2023-04-29T10:20:06.074Z,6.10
2023-04-29T10:22:43.987Z,7.25
2023-04-29T10:25:11.608Z,5.20
2023-04-29T10:27:39.591Z,5.47
2023-04-29T10:30:09.515Z,5.70
2023-04-29T10:35:09.975Z,6.85
2023-04-29T10:37:37.707Z,4.47
2023-04-29T10:40:12.294Z,6.40
2023-04-29T10:42:42.146Z,6.85
2023-04-29T10:45:27.014Z,7.95
2023-04-29T10:48:02.979Z,8.68
2023-04-29T10:50:30.589Z,4.68
2023-04-29T10:52:57.814Z,4.70
2023-04-29T10:55:24.981Z,5.78
2023-04-29T10:57:58.579Z,6.95
2023-04-29T11:00:29.630Z,5.25
2023-04-29T11:02:58.353Z,3.97
2023-04-29T11:05:33.561Z,4.50
2023-04-29T11:08:13.743Z,5.05
2023-04-29T11:10:43.981Z,4.30
2023-04-29T11:16:11.409Z,4.50
2023-04-29T11:19:10.175Z,7.05
2023-04-29T11:21:37.335Z,5.53
2023-04-29T11:24:06.569Z,7.07
2023-04-29T11:26:37.159Z,6.22
2023-04-29T11:29:05.388Z,6.05
2023-04-29T11:31:33.055Z,7.80
2023-04-29T11:34:00.449Z,5.75
2023-04-29T11:36:29.891Z,6.35
2023-04-29T11:38:56.766Z,7.30
2023-04-29T11:41:23.289Z,7.97
2023-04-29T11:43:59.584Z,5.95
2023-04-29T11:46:28.933Z,7.22
2023-04-29T11:48:57.792Z,7.78
2023-04-29T11:51:24.282Z,5.20
2023-04-29T11:53:51.633Z,5.50
2023-04-29T11:56:22.888Z,6.07
2023-04-29T11:58:49.779Z,5.50
2023-04-29T12:01:16.323Z,5.05
2023-04-29T12:03:44.053Z,5.30
2023-04-29T12:06:10.800Z,5.60
2023-04-29T12:08:37.498Z,4.75
2023-04-29T12:11:07.315Z,3.70
2023-04-29T12:13:37.696Z,4.13
2023-04-29T12:16:05.783Z,5.85
2023-04-29T12:18:32.905Z,4.10
2023-04-29T12:20:59.567Z,4.35
2023-04-29T12:23:29.701Z,7.10
2023-04-29T12:25:58.443Z,5.88
2023-04-29T12:28:25.989Z,6.18
2023-04-29T12:30:56.752Z,8.20
2023-04-29T12:33:25.181Z,5.25
2023-04-29T12:35:52.493Z,6.47
2023-04-29T12:38:27.775Z,4.07
2023-04-29T12:40:55.856Z,4.97
2023-04-29T12:43:36.546Z,5.53
2023-04-29T12:46:04.817Z,4.20
2023-04-29T12:48:41.508Z,4.50
2023-04-29T12:51:10.120Z,4.28
2023-04-29T12:53:36.944Z,6.22
2023-04-29T12:56:03.765Z,7.50
2023-04-29T12:58:31.202Z,4.65
2023-04-29T13:00:58.563Z,6.45
2023-04-29T13:03:25.986Z,4.95
2023-04-29T13:05:54.973Z,5.05
2023-04-29T13:08:21.894Z,5.95
2023-04-29T13:10:48.564Z,8.23
2023-04-29T13:13:15.054Z,7.40
2023-04-29T13:15:42.591Z,5.88
2023-04-29T13:18:09.022Z,8.30
2023-04-29T13:20:40.822Z,5.13
2023-04-29T13:23:08.877Z,4.82
2023-04-29T13:25:35.802Z,5.20
2023-04-29T13:28:02.713Z,6.35
2023-04-29T13:30:29.477Z,5.22
2023-04-29T13:32:59.858Z,4.80
2023-04-29T13:35:31.103Z,5.05
2023-04-29T13:37:57.815Z,5.82
2023-04-29T13:40:27.890Z,6.35
2023-04-29T13:43:02.169Z,4.47
2023-04-29T13:45:38.969Z,5.03
2023-04-29T13:48:16.998Z,4.47
2023-04-29T13:53:46.185Z,5.72
2023-04-29T13:59:19.641Z,4.80
2023-04-29T14:02:14.781Z,4.65
2023-04-29T14:04:11.642Z,5.57
2023-04-29T14:06:39.007Z,6.30
2023-04-29T14:09:06.082Z,6.60
2023-04-29T14:11:36.278Z,5.00
2023-04-29T14:16:30.240Z,6.28
2023-04-29T14:18:57.097Z,9.02
2023-04-29T14:21:23.705Z,19.42
2023-04-29T14:23:50.836Z,9.40
2023-04-29T14:26:27.878Z,5.43
2023-04-29T14:28:59.629Z,4.20
2023-04-29T14:31:28.351Z,4.40
2023-04-29T14:33:58.398Z,4.55
2023-04-29T14:36:26.502Z,5.57
2023-04-29T14:38:53.359Z,3.83
2023-04-29T14:41:21.769Z,2.88
2023-04-29T14:43:48.504Z,4.35
2023-04-29T14:46:15.615Z,4.55
2023-04-29T14:48:42.529Z,4.40
2023-04-29T14:51:09.311Z,5.82
2023-04-29T14:53:36.088Z,3.92
2023-04-29T14:56:03.566Z,3.20
2023-04-29T14:58:30.694Z,3.75
2023-04-29T15:00:57.153Z,3.70
2023-04-29T15:03:24.176Z,5.93
2023-04-29T15:05:52.166Z,5.40
2023-04-29T15:08:19.447Z,4.40
2023-04-29T15:10:49.888Z,6.07
2023-04-29T15:13:16.524Z,4.45
2023-04-29T15:15:43.508Z,4.55
2023-04-29T15:18:10.353Z,3.78
2023-04-29T15:20:37.533Z,3.65
2023-04-29T15:23:05.508Z,5.57
2023-04-29T15:25:36.250Z,3.60
2023-04-29T15:28:03.847Z,3.60
2023-04-29T15:30:30.607Z,3.17
2023-04-29T15:32:57.256Z,4.05
2023-04-29T15:35:23.839Z,3.25
2023-04-29T15:37:50.474Z,3.60
2023-04-29T15:40:17.724Z,3.78
2023-04-29T15:42:44.490Z,4.05
2023-04-29T15:45:11.612Z,3.70
2023-04-29T15:47:38.710Z,5.65
2023-04-29T15:50:05.987Z,3.65
2023-04-29T15:52:32.657Z,4.80
2023-04-29T15:54:59.593Z,4.65
2023-04-29T15:57:26.358Z,4.60
2023-04-29T15:59:53.304Z,5.43
2023-04-29T16:02:20.862Z,6.25
2023-04-29T16:04:47.969Z,6.97
2023-04-29T16:07:14.600Z,3.97
2023-04-29T16:09:42.430Z,4.57
2023-04-29T16:12:11.683Z,5.18
2023-04-29T16:14:38.201Z,4.70
2023-04-29T16:17:05.811Z,6.70
2023-04-29T16:19:35.111Z,3.60
2023-04-29T16:22:03.349Z,4.80
2023-04-29T16:24:30.034Z,3.78
2023-04-29T16:26:56.981Z,4.25
2023-04-29T16:29:23.407Z,3.45
2023-04-29T16:31:50.061Z,3.53
2023-04-29T16:34:16.822Z,6.05
2023-04-29T16:36:43.538Z,4.07
2023-04-29T16:39:10.135Z,3.60
2023-04-29T16:41:37.384Z,3.22
2023-04-29T16:44:03.965Z,3.53
2023-04-29T16:46:32.464Z,5.28
2023-04-29T16:48:59.205Z,3.88
2023-04-29T16:51:26.253Z,3.78
2023-04-29T16:53:53.354Z,3.30
2023-04-29T16:56:21.412Z,4.45
2023-04-29T16:58:48.880Z,4.25
2023-04-29T17:01:16.051Z,5.28
2023-04-29T17:03:42.808Z,4.93
2023-04-29T17:06:09.392Z,7.80
2023-04-29T17:08:36.395Z,5.72
2023-04-29T17:11:04.788Z,4.28
2023-04-29T17:13:31.563Z,4.63
2023-04-29T17:15:58.436Z,5.35
2023-04-29T17:18:24.974Z,5.30
2023-04-29T17:20:51.678Z,4.10
2023-04-29T17:23:18.321Z,5.65
2023-04-29T17:25:45.167Z,13.30
2023-04-29T17:28:11.752Z,4.63
2023-04-29T17:30:38.566Z,4.55
2023-04-29T17:33:07.529Z,6.75
2023-04-29T17:35:34.992Z,5.30
2023-04-29T17:38:01.679Z,5.55
2023-04-29T17:40:28.132Z,6.95
2023-04-29T17:42:54.842Z,5.68
2023-04-29T17:45:21.312Z,8.65
2023-04-29T17:47:48.438Z,9.68
2023-04-29T17:50:15.085Z,5.82
2023-04-29T17:52:41.778Z,6.07
2023-04-29T17:55:08.870Z,5.30
2023-04-29T17:57:36.452Z,5.28
2023-04-29T18:00:03.302Z,5.03
2023-04-29T18:02:31.908Z,3.00
2023-04-29T18:04:58.613Z,4.00
2023-04-29T18:07:25.046Z,2.55
2023-04-29T18:09:51.708Z,2.85
2023-04-29T18:12:18.345Z,2.67
2023-04-29T18:14:46.455Z,4.55
2023-04-29T18:17:12.886Z,2.25
2023-04-29T18:19:39.716Z,2.90
2023-04-29T18:22:06.241Z,2.30
2023-04-29T18:24:32.709Z,4.75
2023-04-29T18:26:59.263Z,3.90
2023-04-29T18:29:25.680Z,2.00
2023-04-29T18:31:54.620Z,2.65
2023-04-29T18:34:21.187Z,2.33
2023-04-29T18:36:47.737Z,2.92
2023-04-29T18:39:14.974Z,2.00
2023-04-29T18:41:41.726Z,2.40
2023-04-29T18:44:08.429Z,2.97
2023-04-29T18:46:35.155Z,2.50
2023-04-29T18:49:01.876Z,2.40
2023-04-29T18:51:29.135Z,2.33
2023-04-29T18:53:55.908Z,4.22
2023-04-29T18:56:22.472Z,3.58
2023-04-29T18:58:49.483Z,6.03
2023-04-29T19:01:16.077Z,3.90
2023-04-29T19:03:42.731Z,3.10
2023-04-29T19:06:09.269Z,3.55
2023-04-29T19:08:36.066Z,3.70
2023-04-29T19:11:03.780Z,3.30
2023-04-29T19:13:30.523Z,2.40
2023-04-29T19:15:57.139Z,4.20
2023-04-29T19:18:23.733Z,2.50
2023-04-29T19:20:50.815Z,3.60
2023-04-29T19:23:17.405Z,3.65
2023-04-29T19:25:44.041Z,4.55
2023-04-29T19:28:10.873Z,5.55
2023-04-29T19:30:37.331Z,2.50
2023-04-29T19:33:04.244Z,3.40
2023-04-29T19:35:33.804Z,3.03
2023-04-29T19:38:00.394Z,2.88
2023-04-29T19:40:26.976Z,3.28
2023-04-29T19:42:53.406Z,4.32
2023-04-29T19:45:20.947Z,5.25
2023-04-29T19:47:49.732Z,4.55
2023-04-29T19:50:16.493Z,4.97
2023-04-29T19:52:43.088Z,8.10
2023-04-29T19:55:09.752Z,5.13
2023-04-29T19:57:36.366Z,5.75
2023-04-29T20:00:04.397Z,11.05
2023-04-29T20:02:33.414Z,6.32
2023-04-29T20:04:59.953Z,7.97
2023-04-29T20:07:26.492Z,6.60
2023-04-29T20:09:53.136Z,7.07
2023-04-29T20:12:20.413Z,7.25
2023-04-29T20:14:47.118Z,13.38
2023-04-29T20:17:13.669Z,7.97
2023-04-29T20:19:40.105Z,13.02
2023-04-29T20:22:06.559Z,10.50
2023-04-29T20:24:32.953Z,8.73
2023-04-29T20:26:59.530Z,8.60
2023-04-29T20:29:27.524Z,8.13
2023-04-29T20:31:53.954Z,7.50
2023-04-29T20:34:20.411Z,7.38
2023-04-29T20:36:48.015Z,8.68
2023-04-29T20:39:14.597Z,9.00
2023-04-29T20:41:41.570Z,10.80
2023-04-29T20:44:08.020Z,10.82
2023-04-29T20:46:34.597Z,10.32
2023-04-29T20:49:01.747Z,11.75
2023-04-29T20:51:28.661Z,12.93
2023-04-29T20:53:55.355Z,10.25
2023-04-29T20:56:21.951Z,11.90
2023-04-29T20:58:48.517Z,13.75
2023-04-29T21:01:15.046Z,9.93
2023-04-29T21:03:41.816Z,10.20
2023-04-29T21:06:08.431Z,10.82
2023-04-29T21:08:35.141Z,11.75
2023-04-29T21:11:01.679Z,17.90
2023-04-29T21:13:28.363Z,10.13
2023-04-29T21:15:54.882Z,10.68
2023-04-29T21:18:21.486Z,9.60
2023-04-29T21:20:48.026Z,13.68
2023-04-29T21:23:14.730Z,11.32
2023-04-29T21:25:41.200Z,12.98
2023-04-29T21:28:07.634Z,16.95
2023-04-29T21:30:34.191Z,10.93
2023-04-29T21:33:00.922Z,12.30
2023-04-29T21:35:27.709Z,14.55
2023-04-29T21:37:54.831Z,10.68
2023-04-29T21:40:21.453Z,11.43
2023-04-29T21:42:49.245Z,12.00
2023-04-29T21:45:16.599Z,10.95
2023-04-29T21:47:43.649Z,11.88
2023-04-29T21:50:12.331Z,12.18
2023-04-29T21:52:38.953Z,12.02
2023-04-29T21:55:06.331Z,13.02
2023-04-29T21:57:43.798Z,14.77
2023-04-29T22:00:28.247Z,10.77
2023-04-29T22:02:54.792Z,13.93
2023-04-29T22:05:21.371Z,13.05
2023-04-29T22:07:47.805Z,10.35
2023-04-29T22:10:14.443Z,11.00
2023-04-29T22:12:40.928Z,17.30
2023-04-29T22:15:16.955Z,12.00
2023-04-29T22:17:54.329Z,11.63
2023-04-29T22:20:21.247Z,10.65
2023-04-29T22:22:47.891Z,10.43
2023-04-29T22:25:14.354Z,10.98
2023-04-29T22:27:41.083Z,11.27
2023-04-29T22:30:08.196Z,12.00
2023-04-29T22:32:34.847Z,12.35
2023-04-29T22:35:01.695Z,13.80
2023-04-29T22:37:28.306Z,11.95
2023-04-29T22:39:55.302Z,16.15
2023-04-29T22:42:22.362Z,11.82
2023-04-29T22:44:49.072Z,12.40
2023-04-29T22:47:15.545Z,11.90
2023-04-29T22:49:42.098Z,10.40
2023-04-29T22:52:08.675Z,11.88
2023-04-29T22:54:35.793Z,12.90
2023-04-29T22:57:03.989Z,13.27
2023-04-29T22:59:30.793Z,11.73
2023-04-29T23:01:57.737Z,9.02
2023-04-29T23:04:24.710Z,11.02
2023-04-29T23:06:51.869Z,14.93
2023-04-29T23:09:18.879Z,10.63
2023-04-29T23:11:45.563Z,13.68
2023-04-29T23:14:12.087Z,12.68
2023-04-29T23:16:38.568Z,13.23
2023-04-29T23:19:05.253Z,12.73
2023-04-29T23:21:32.360Z,12.00
2023-04-29T23:23:59.134Z,16.50
2023-04-29T23:26:25.711Z,11.50
2023-04-29T23:28:52.420Z,10.60
2023-04-29T23:31:19.027Z,13.32
2023-04-29T23:33:46.256Z,14.60
2023-04-29T23:36:12.914Z,11.45
2023-04-29T23:38:39.511Z,11.68
2023-04-29T23:41:05.955Z,15.07
2023-04-29T23:43:32.750Z,11.77
2023-04-29T23:45:59.352Z,11.52
2023-04-29T23:48:26.034Z,11.45
2023-04-29T23:50:52.547Z,14.43
2023-04-29T23:53:19.124Z,11.77
2023-04-29T23:55:45.991Z,12.23
2023-04-29T23:58:12.761Z,12.10
